Terminal Aerodrome Forecast
Issued by NWS

Home | Current Version | Previous Version | Text Only | Print | Product List | Glossary On
Versions: 1 2 3 4 5 6 7 8 9 10 11 12 13 14
000
FTUS43 KGRR 242349
TAFAZO
TAF
KAZO 242349Z 2500/2524 11008KT 6SM -RA OVC080
     FM250400 16010KT 6SM BR OVC050
     FM251000 19012G20KT 5SM BR OVC035
     FM251600 21020G30KT P6SM VCSH OVC035
     FM252100 23016G26KT P6SM VCSH BKN040=

USA.gov is the U.S. government's official web portal to all federal, state and local government web resources and services.